sensor_id;sensor_type;location;lat;lon;timestamp;P1;durP1;ratioP1;P2;durP2;ratioP2
9256;SDS011;4665;51.368;6.782;2023-09-18T00:01:56;5.50;;;4.10;;
9256;SDS011;4665;51.368;6.782;2023-09-18T00:04:21;5.13;;;4.50;;
9256;SDS011;4665;51.368;6.782;2023-09-18T00:06:47;5.63;;;4.50;;
9256;SDS011;4665;51.368;6.782;2023-09-18T00:09:12;4.30;;;3.83;;
9256;SDS011;4665;51.368;6.782;2023-09-18T00:11:38;4.73;;;4.30;;
9256;SDS011;4665;51.368;6.782;2023-09-18T00:14:04;5.23;;;4.20;;
9256;SDS011;4665;51.368;6.782;2023-09-18T00:16:29;4.70;;;4.30;;
9256;SDS011;4665;51.368;6.782;2023-09-18T00:18:54;5.57;;;4.60;;
9256;SDS011;4665;51.368;6.782;2023-09-18T00:21:20;4.97;;;4.57;;
9256;SDS011;4665;51.368;6.782;2023-09-18T00:23:45;5.93;;;4.50;;
9256;SDS011;4665;51.368;6.782;2023-09-18T00:26:11;4.57;;;4.17;;
9256;SDS011;4665;51.368;6.782;2023-09-18T00:28:36;6.27;;;4.70;;
9256;SDS011;4665;51.368;6.782;2023-09-18T00:31:02;4.90;;;4.50;;
9256;SDS011;4665;51.368;6.782;2023-09-18T00:33:27;4.70;;;4.30;;
9256;SDS011;4665;51.368;6.782;2023-09-18T00:35:52;5.27;;;4.37;;
9256;SDS011;4665;51.368;6.782;2023-09-18T00:38:17;4.77;;;4.47;;
9256;SDS011;4665;51.368;6.782;2023-09-18T00:40:43;4.77;;;4.33;;
9256;SDS011;4665;51.368;6.782;2023-09-18T00:43:09;6.13;;;4.53;;
9256;SDS011;4665;51.368;6.782;2023-09-18T00:45:35;7.40;;;4.33;;
9256;SDS011;4665;51.368;6.782;2023-09-18T00:48:03;4.93;;;4.30;;
9256;SDS011;4665;51.368;6.782;2023-09-18T00:50:28;4.90;;;4.23;;
9256;SDS011;4665;51.368;6.782;2023-09-18T00:52:53;4.90;;;4.50;;
9256;SDS011;4665;51.368;6.782;2023-09-18T00:55:19;5.00;;;4.57;;
9256;SDS011;4665;51.368;6.782;2023-09-18T00:57:44;4.67;;;4.23;;
9256;SDS011;4665;51.368;6.782;2023-09-18T01:00:10;6.77;;;5.13;;
9256;SDS011;4665;51.368;6.782;2023-09-18T01:02:40;5.90;;;5.40;;
9256;SDS011;4665;51.368;6.782;2023-09-18T01:05:05;6.20;;;5.07;;
9256;SDS011;4665;51.368;6.782;2023-09-18T01:07:31;7.73;;;5.00;;
9256;SDS011;4665;51.368;6.782;2023-09-18T01:09:56;5.33;;;4.67;;
9256;SDS011;4665;51.368;6.782;2023-09-18T01:12:36;4.93;;;4.53;;
9256;SDS011;4665;51.368;6.782;2023-09-18T01:15:15;5.47;;;4.80;;
9256;SDS011;4665;51.368;6.782;2023-09-18T01:17:42;8.40;;;4.73;;
9256;SDS011;4665;51.368;6.782;2023-09-18T01:20:10;4.87;;;4.47;;
9256;SDS011;4665;51.368;6.782;2023-09-18T01:22:36;6.33;;;4.30;;
9256;SDS011;4665;51.368;6.782;2023-09-18T01:25:01;5.17;;;4.47;;
9256;SDS011;4665;51.368;6.782;2023-09-18T01:27:27;4.87;;;4.47;;
9256;SDS011;4665;51.368;6.782;2023-09-18T01:29:52;5.47;;;4.40;;
9256;SDS011;4665;51.368;6.782;2023-09-18T01:32:18;5.00;;;4.60;;
9256;SDS011;4665;51.368;6.782;2023-09-18T01:34:48;6.47;;;4.33;;
9256;SDS011;4665;51.368;6.782;2023-09-18T01:37:14;4.47;;;4.07;;
9256;SDS011;4665;51.368;6.782;2023-09-18T01:39:40;6.20;;;4.60;;
9256;SDS011;4665;51.368;6.782;2023-09-18T01:42:06;4.83;;;3.93;;
9256;SDS011;4665;51.368;6.782;2023-09-18T01:44:32;7.87;;;4.67;;
9256;SDS011;4665;51.368;6.782;2023-09-18T01:46:57;5.47;;;4.50;;
9256;SDS011;4665;51.368;6.782;2023-09-18T01:49:27;5.97;;;5.13;;
9256;SDS011;4665;51.368;6.782;2023-09-18T01:51:52;5.30;;;4.90;;
9256;SDS011;4665;51.368;6.782;2023-09-18T01:54:17;5.47;;;5.00;;
9256;SDS011;4665;51.368;6.782;2023-09-18T01:56:43;5.00;;;4.40;;
9256;SDS011;4665;51.368;6.782;2023-09-18T01:59:08;7.47;;;4.93;;
9256;SDS011;4665;51.368;6.782;2023-09-18T02:01:34;5.23;;;4.73;;
9256;SDS011;4665;51.368;6.782;2023-09-18T02:04:00;4.57;;;4.27;;
9256;SDS011;4665;51.368;6.782;2023-09-18T02:06:25;6.90;;;4.67;;
9256;SDS011;4665;51.368;6.782;2023-09-18T02:08:50;5.30;;;4.80;;
9256;SDS011;4665;51.368;6.782;2023-09-18T02:11:15;6.43;;;4.70;;
9256;SDS011;4665;51.368;6.782;2023-09-18T02:13:41;7.70;;;4.77;;
9256;SDS011;4665;51.368;6.782;2023-09-18T02:16:07;4.70;;;4.40;;
9256;SDS011;4665;51.368;6.782;2023-09-18T02:18:32;5.93;;;4.30;;
9256;SDS011;4665;51.368;6.782;2023-09-18T02:20:58;5.40;;;4.20;;
9256;SDS011;4665;51.368;6.782;2023-09-18T02:23:23;6.73;;;4.43;;
9256;SDS011;4665;51.368;6.782;2023-09-18T02:25:54;4.77;;;4.20;;
9256;SDS011;4665;51.368;6.782;2023-09-18T02:28:20;4.90;;;4.50;;
9256;SDS011;4665;51.368;6.782;2023-09-18T02:30:45;4.80;;;4.40;;
9256;SDS011;4665;51.368;6.782;2023-09-18T02:33:10;5.13;;;4.73;;
9256;SDS011;4665;51.368;6.782;2023-09-18T02:35:35;7.40;;;4.47;;
9256;SDS011;4665;51.368;6.782;2023-09-18T02:38:01;4.90;;;4.50;;
9256;SDS011;4665;51.368;6.782;2023-09-18T02:40:27;5.47;;;4.77;;
9256;SDS011;4665;51.368;6.782;2023-09-18T02:42:52;5.00;;;4.43;;
9256;SDS011;4665;51.368;6.782;2023-09-18T02:45:18;6.73;;;4.67;;
9256;SDS011;4665;51.368;6.782;2023-09-18T02:47:43;7.97;;;5.37;;
9256;SDS011;4665;51.368;6.782;2023-09-18T02:50:08;6.87;;;4.63;;
9256;SDS011;4665;51.368;6.782;2023-09-18T02:52:35;4.70;;;4.30;;
9256;SDS011;4665;51.368;6.782;2023-09-18T02:55:01;5.07;;;4.67;;
9256;SDS011;4665;51.368;6.782;2023-09-18T02:57:26;6.77;;;4.97;;
9256;SDS011;4665;51.368;6.782;2023-09-18T02:59:51;7.30;;;4.90;;
9256;SDS011;4665;51.368;6.782;2023-09-18T03:02:16;5.47;;;4.80;;
9256;SDS011;4665;51.368;6.782;2023-09-18T03:04:42;6.43;;;4.80;;
9256;SDS011;4665;51.368;6.782;2023-09-18T03:07:07;5.23;;;4.47;;
9256;SDS011;4665;51.368;6.782;2023-09-18T03:09:32;9.43;;;5.17;;
9256;SDS011;4665;51.368;6.782;2023-09-18T03:11:57;6.13;;;5.00;;
9256;SDS011;4665;51.368;6.782;2023-09-18T03:14:23;6.10;;;4.70;;
9256;SDS011;4665;51.368;6.782;2023-09-18T03:16:48;7.03;;;4.70;;
9256;SDS011;4665;51.368;6.782;2023-09-18T03:19:13;7.30;;;4.97;;
9256;SDS011;4665;51.368;6.782;2023-09-18T03:21:38;5.07;;;4.67;;
9256;SDS011;4665;51.368;6.782;2023-09-18T03:24:04;5.37;;;4.87;;
9256;SDS011;4665;51.368;6.782;2023-09-18T03:26:29;4.63;;;4.23;;
9256;SDS011;4665;51.368;6.782;2023-09-18T03:28:54;5.50;;;4.97;;
9256;SDS011;4665;51.368;6.782;2023-09-18T03:31:20;7.43;;;4.40;;
9256;SDS011;4665;51.368;6.782;2023-09-18T03:33:45;4.77;;;4.37;;
9256;SDS011;4665;51.368;6.782;2023-09-18T03:36:11;8.13;;;4.70;;
9256;SDS011;4665;51.368;6.782;2023-09-18T03:38:36;8.07;;;4.57;;
9256;SDS011;4665;51.368;6.782;2023-09-18T03:41:02;6.20;;;4.43;;
9256;SDS011;4665;51.368;6.782;2023-09-18T03:43:27;5.73;;;4.17;;
9256;SDS011;4665;51.368;6.782;2023-09-18T03:45:52;5.63;;;4.50;;
9256;SDS011;4665;51.368;6.782;2023-09-18T03:48:17;6.00;;;4.47;;
9256;SDS011;4665;51.368;6.782;2023-09-18T03:50:43;6.97;;;4.70;;
9256;SDS011;4665;51.368;6.782;2023-09-18T03:53:09;4.93;;;4.43;;
9256;SDS011;4665;51.368;6.782;2023-09-18T03:55:34;8.47;;;4.20;;
9256;SDS011;4665;51.368;6.782;2023-09-18T03:57:59;4.77;;;4.30;;
9256;SDS011;4665;51.368;6.782;2023-09-18T04:00:25;5.47;;;4.43;;
9256;SDS011;4665;51.368;6.782;2023-09-18T04:02:51;6.63;;;4.37;;
9256;SDS011;4665;51.368;6.782;2023-09-18T04:05:16;8.00;;;4.93;;
9256;SDS011;4665;51.368;6.782;2023-09-18T04:07:41;8.27;;;4.40;;
9256;SDS011;4665;51.368;6.782;2023-09-18T04:10:10;4.80;;;4.30;;
9256;SDS011;4665;51.368;6.782;2023-09-18T04:12:40;6.70;;;4.80;;
9256;SDS011;4665;51.368;6.782;2023-09-18T04:15:05;6.47;;;4.03;;
9256;SDS011;4665;51.368;6.782;2023-09-18T04:17:31;7.30;;;4.17;;
9256;SDS011;4665;51.368;6.782;2023-09-18T04:19:56;6.37;;;4.83;;
9256;SDS011;4665;51.368;6.782;2023-09-18T04:22:21;8.40;;;4.13;;
9256;SDS011;4665;51.368;6.782;2023-09-18T04:24:47;8.13;;;4.40;;
9256;SDS011;4665;51.368;6.782;2023-09-18T04:27:12;6.47;;;4.20;;
9256;SDS011;4665;51.368;6.782;2023-09-18T04:29:37;15.33;;;4.20;;
9256;SDS011;4665;51.368;6.782;2023-09-18T04:32:03;9.77;;;5.23;;
9256;SDS011;4665;51.368;6.782;2023-09-18T04:34:29;7.37;;;4.47;;
9256;SDS011;4665;51.368;6.782;2023-09-18T04:36:54;8.47;;;4.30;;
9256;SDS011;4665;51.368;6.782;2023-09-18T04:39:19;5.73;;;4.03;;
9256;SDS011;4665;51.368;6.782;2023-09-18T04:41:44;6.77;;;4.20;;
9256;SDS011;4665;51.368;6.782;2023-09-18T04:44:10;9.20;;;4.10;;
9256;SDS011;4665;51.368;6.782;2023-09-18T04:46:37;6.83;;;4.27;;
9256;SDS011;4665;51.368;6.782;2023-09-18T04:49:03;5.80;;;4.40;;
9256;SDS011;4665;51.368;6.782;2023-09-18T04:51:29;6.53;;;4.53;;
9256;SDS011;4665;51.368;6.782;2023-09-18T04:53:54;6.03;;;4.40;;
9256;SDS011;4665;51.368;6.782;2023-09-18T04:56:20;8.17;;;4.43;;
9256;SDS011;4665;51.368;6.782;2023-09-18T04:58:45;5.93;;;4.30;;
9256;SDS011;4665;51.368;6.782;2023-09-18T05:01:10;5.77;;;4.50;;
9256;SDS011;4665;51.368;6.782;2023-09-18T05:03:36;5.23;;;4.00;;
9256;SDS011;4665;51.368;6.782;2023-09-18T05:06:01;7.20;;;4.97;;
9256;SDS011;4665;51.368;6.782;2023-09-18T05:08:28;9.97;;;4.60;;
9256;SDS011;4665;51.368;6.782;2023-09-18T05:10:53;5.63;;;4.33;;
9256;SDS011;4665;51.368;6.782;2023-09-18T05:13:18;4.90;;;4.50;;
9256;SDS011;4665;51.368;6.782;2023-09-18T05:15:43;9.17;;;4.50;;
9256;SDS011;4665;51.368;6.782;2023-09-18T05:18:09;7.53;;;4.50;;
9256;SDS011;4665;51.368;6.782;2023-09-18T05:20:34;5.67;;;4.53;;
9256;SDS011;4665;51.368;6.782;2023-09-18T05:23:00;5.93;;;4.20;;
9256;SDS011;4665;51.368;6.782;2023-09-18T05:25:27;6.37;;;4.30;;
9256;SDS011;4665;51.368;6.782;2023-09-18T05:27:59;6.67;;;4.60;;
9256;SDS011;4665;51.368;6.782;2023-09-18T05:32:50;8.93;;;4.87;;
9256;SDS011;4665;51.368;6.782;2023-09-18T05:35:15;6.67;;;4.40;;
9256;SDS011;4665;51.368;6.782;2023-09-18T05:37:41;9.03;;;4.77;;
9256;SDS011;4665;51.368;6.782;2023-09-18T05:40:09;8.10;;;4.53;;
9256;SDS011;4665;51.368;6.782;2023-09-18T05:42:35;6.63;;;4.70;;
9256;SDS011;4665;51.368;6.782;2023-09-18T05:45:00;7.30;;;4.10;;
9256;SDS011;4665;51.368;6.782;2023-09-18T05:47:25;7.10;;;4.40;;
9256;SDS011;4665;51.368;6.782;2023-09-18T05:49:51;8.43;;;4.57;;
9256;SDS011;4665;51.368;6.782;2023-09-18T05:52:16;6.63;;;3.90;;
9256;SDS011;4665;51.368;6.782;2023-09-18T05:54:41;8.50;;;4.20;;
9256;SDS011;4665;51.368;6.782;2023-09-18T05:57:06;7.63;;;4.33;;
9256;SDS011;4665;51.368;6.782;2023-09-18T05:59:32;4.40;;;3.80;;
9256;SDS011;4665;51.368;6.782;2023-09-18T06:01:57;4.43;;;4.07;;
9256;SDS011;4665;51.368;6.782;2023-09-18T06:04:22;8.30;;;4.23;;
9256;SDS011;4665;51.368;6.782;2023-09-18T06:06:48;7.07;;;4.33;;
9256;SDS011;4665;51.368;6.782;2023-09-18T06:09:14;7.87;;;3.90;;
9256;SDS011;4665;51.368;6.782;2023-09-18T06:11:39;7.80;;;3.73;;
9256;SDS011;4665;51.368;6.782;2023-09-18T06:14:04;6.90;;;4.10;;
9256;SDS011;4665;51.368;6.782;2023-09-18T06:16:30;6.07;;;4.33;;
9256;SDS011;4665;51.368;6.782;2023-09-18T06:18:55;5.23;;;3.90;;
9256;SDS011;4665;51.368;6.782;2023-09-18T06:21:21;7.97;;;4.10;;
9256;SDS011;4665;51.368;6.782;2023-09-18T06:23:46;8.00;;;4.13;;
9256;SDS011;4665;51.368;6.782;2023-09-18T06:26:11;4.63;;;3.13;;
9256;SDS011;4665;51.368;6.782;2023-09-18T06:28:36;5.93;;;3.40;;
9256;SDS011;4665;51.368;6.782;2023-09-18T06:31:01;7.27;;;3.53;;
9256;SDS011;4665;51.368;6.782;2023-09-18T06:33:27;7.20;;;3.60;;
9256;SDS011;4665;51.368;6.782;2023-09-18T06:35:52;8.13;;;3.83;;
9256;SDS011;4665;51.368;6.782;2023-09-18T06:38:17;5.07;;;3.83;;
9256;SDS011;4665;51.368;6.782;2023-09-18T06:40:42;5.77;;;3.67;;
9256;SDS011;4665;51.368;6.782;2023-09-18T06:43:08;5.90;;;3.60;;
9256;SDS011;4665;51.368;6.782;2023-09-18T06:45:33;4.97;;;3.40;;
9256;SDS011;4665;51.368;6.782;2023-09-18T06:47:58;5.47;;;3.47;;
9256;SDS011;4665;51.368;6.782;2023-09-18T06:50:25;5.03;;;2.80;;
9256;SDS011;4665;51.368;6.782;2023-09-18T06:52:50;4.90;;;3.30;;
9256;SDS011;4665;51.368;6.782;2023-09-18T06:55:15;5.13;;;3.33;;
9256;SDS011;4665;51.368;6.782;2023-09-18T06:57:41;5.73;;;3.40;;
9256;SDS011;4665;51.368;6.782;2023-09-18T07:00:07;3.50;;;2.80;;
9256;SDS011;4665;51.368;6.782;2023-09-18T07:02:32;4.00;;;2.90;;
9256;SDS011;4665;51.368;6.782;2023-09-18T07:04:57;4.30;;;3.20;;
9256;SDS011;4665;51.368;6.782;2023-09-18T07:07:23;6.20;;;2.93;;
9256;SDS011;4665;51.368;6.782;2023-09-18T07:09:50;5.10;;;3.37;;
9256;SDS011;4665;51.368;6.782;2023-09-18T07:12:16;4.83;;;3.00;;
9256;SDS011;4665;51.368;6.782;2023-09-18T07:14:43;4.43;;;2.60;;
9256;SDS011;4665;51.368;6.782;2023-09-18T07:17:09;3.67;;;2.70;;
9256;SDS011;4665;51.368;6.782;2023-09-18T07:19:35;3.10;;;2.50;;
9256;SDS011;4665;51.368;6.782;2023-09-18T07:22:00;3.47;;;2.63;;
9256;SDS011;4665;51.368;6.782;2023-09-18T07:24:26;3.23;;;2.60;;
9256;SDS011;4665;51.368;6.782;2023-09-18T07:26:51;4.07;;;2.40;;
9256;SDS011;4665;51.368;6.782;2023-09-18T07:29:16;4.87;;;2.73;;
9256;SDS011;4665;51.368;6.782;2023-09-18T07:31:42;5.13;;;2.83;;
9256;SDS011;4665;51.368;6.782;2023-09-18T07:34:07;3.60;;;2.30;;
9256;SDS011;4665;51.368;6.782;2023-09-18T07:36:32;4.73;;;2.50;;
9256;SDS011;4665;51.368;6.782;2023-09-18T07:38:58;2.33;;;2.10;;
9256;SDS011;4665;51.368;6.782;2023-09-18T07:41:23;5.27;;;2.47;;
9256;SDS011;4665;51.368;6.782;2023-09-18T07:43:48;3.83;;;2.27;;
9256;SDS011;4665;51.368;6.782;2023-09-18T07:46:14;3.93;;;2.10;;
9256;SDS011;4665;51.368;6.782;2023-09-18T07:48:39;6.90;;;2.10;;
9256;SDS011;4665;51.368;6.782;2023-09-18T07:51:04;2.63;;;2.10;;
9256;SDS011;4665;51.368;6.782;2023-09-18T07:53:30;2.47;;;1.70;;
9256;SDS011;4665;51.368;6.782;2023-09-18T07:55:55;4.37;;;2.03;;
9256;SDS011;4665;51.368;6.782;2023-09-18T07:58:22;4.03;;;2.03;;
9256;SDS011;4665;51.368;6.782;2023-09-18T08:00:47;3.03;;;2.20;;
9256;SDS011;4665;51.368;6.782;2023-09-18T08:03:13;3.70;;;2.07;;
9256;SDS011;4665;51.368;6.782;2023-09-18T08:05:39;6.00;;;2.00;;
9256;SDS011;4665;51.368;6.782;2023-09-18T08:08:04;3.07;;;1.93;;
9256;SDS011;4665;51.368;6.782;2023-09-18T08:10:30;2.50;;;1.80;;
9256;SDS011;4665;51.368;6.782;2023-09-18T08:12:55;2.17;;;1.97;;
9256;SDS011;4665;51.368;6.782;2023-09-18T08:15:21;3.40;;;1.93;;
9256;SDS011;4665;51.368;6.782;2023-09-18T08:17:46;4.20;;;1.93;;
9256;SDS011;4665;51.368;6.782;2023-09-18T08:20:13;5.20;;;2.17;;
9256;SDS011;4665;51.368;6.782;2023-09-18T08:22:40;1.90;;;1.70;;
9256;SDS011;4665;51.368;6.782;2023-09-18T08:25:06;4.90;;;2.30;;
9256;SDS011;4665;51.368;6.782;2023-09-18T08:27:35;2.63;;;1.70;;
9256;SDS011;4665;51.368;6.782;2023-09-18T08:30:02;3.77;;;1.73;;
9256;SDS011;4665;51.368;6.782;2023-09-18T08:32:27;1.70;;;1.40;;
9256;SDS011;4665;51.368;6.782;2023-09-18T08:34:55;1.53;;;1.40;;
9256;SDS011;4665;51.368;6.782;2023-09-18T08:37:20;2.43;;;1.40;;
9256;SDS011;4665;51.368;6.782;2023-09-18T08:39:45;3.33;;;1.83;;
9256;SDS011;4665;51.368;6.782;2023-09-18T08:42:11;3.27;;;1.80;;
9256;SDS011;4665;51.368;6.782;2023-09-18T08:44:37;5.43;;;1.57;;
9256;SDS011;4665;51.368;6.782;2023-09-18T08:47:03;1.70;;;1.60;;
9256;SDS011;4665;51.368;6.782;2023-09-18T08:49:29;3.63;;;1.77;;
9256;SDS011;4665;51.368;6.782;2023-09-18T08:51:55;1.60;;;1.50;;
9256;SDS011;4665;51.368;6.782;2023-09-18T08:54:21;1.50;;;1.40;;
9256;SDS011;4665;51.368;6.782;2023-09-18T08:56:46;2.30;;;1.60;;
9256;SDS011;4665;51.368;6.782;2023-09-18T08:59:11;1.93;;;1.40;;
9256;SDS011;4665;51.368;6.782;2023-09-18T09:01:37;3.33;;;1.50;;
9256;SDS011;4665;51.368;6.782;2023-09-18T09:04:02;2.17;;;1.43;;
9256;SDS011;4665;51.368;6.782;2023-09-18T09:06:29;5.00;;;1.80;;
9256;SDS011;4665;51.368;6.782;2023-09-18T09:08:54;2.33;;;1.60;;
9256;SDS011;4665;51.368;6.782;2023-09-18T09:11:20;3.07;;;1.67;;
9256;SDS011;4665;51.368;6.782;2023-09-18T09:13:45;2.67;;;1.60;;
9256;SDS011;4665;51.368;6.782;2023-09-18T09:16:10;2.03;;;1.53;;
9256;SDS011;4665;51.368;6.782;2023-09-18T09:18:46;3.37;;;1.70;;
9256;SDS011;4665;51.368;6.782;2023-09-18T09:21:11;1.73;;;1.60;;
9256;SDS011;4665;51.368;6.782;2023-09-18T09:23:46;2.87;;;1.73;;
9256;SDS011;4665;51.368;6.782;2023-09-18T09:26:19;3.73;;;1.73;;
9256;SDS011;4665;51.368;6.782;2023-09-18T09:28:45;3.20;;;1.30;;
9256;SDS011;4665;51.368;6.782;2023-09-18T09:31:10;2.03;;;1.33;;
9256;SDS011;4665;51.368;6.782;2023-09-18T09:33:36;4.73;;;1.80;;
9256;SDS011;4665;51.368;6.782;2023-09-18T09:36:04;2.60;;;1.40;;
9256;SDS011;4665;51.368;6.782;2023-09-18T09:38:30;2.33;;;1.67;;
9256;SDS011;4665;51.368;6.782;2023-09-18T09:40:59;4.77;;;1.80;;
9256;SDS011;4665;51.368;6.782;2023-09-18T09:43:25;3.40;;;1.67;;
9256;SDS011;4665;51.368;6.782;2023-09-18T09:45:55;2.30;;;1.70;;
9256;SDS011;4665;51.368;6.782;2023-09-18T09:48:23;1.70;;;1.60;;
9256;SDS011;4665;51.368;6.782;2023-09-18T09:50:49;2.70;;;1.30;;
9256;SDS011;4665;51.368;6.782;2023-09-18T09:53:15;2.10;;;1.77;;
9256;SDS011;4665;51.368;6.782;2023-09-18T09:55:41;2.07;;;1.63;;
9256;SDS011;4665;51.368;6.782;2023-09-18T09:58:07;1.87;;;1.77;;
9256;SDS011;4665;51.368;6.782;2023-09-18T10:00:33;4.37;;;1.73;;
9256;SDS011;4665;51.368;6.782;2023-09-18T10:03:06;1.53;;;1.43;;
9256;SDS011;4665;51.368;6.782;2023-09-18T10:05:34;3.27;;;1.70;;
9256;SDS011;4665;51.368;6.782;2023-09-18T10:08:01;3.97;;;1.50;;
9256;SDS011;4665;51.368;6.782;2023-09-18T10:11:09;3.87;;;1.70;;
9256;SDS011;4665;51.368;6.782;2023-09-18T10:13:18;2.97;;;1.60;;
9256;SDS011;4665;51.368;6.782;2023-09-18T10:15:44;2.67;;;1.60;;
9256;SDS011;4665;51.368;6.782;2023-09-18T10:18:27;3.87;;;1.97;;
9256;SDS011;4665;51.368;6.782;2023-09-18T10:20:56;4.30;;;2.00;;
9256;SDS011;4665;51.368;6.782;2023-09-18T10:23:42;1.90;;;1.70;;
9256;SDS011;4665;51.368;6.782;2023-09-18T10:26:12;3.83;;;1.63;;
9256;SDS011;4665;51.368;6.782;2023-09-18T10:28:41;1.80;;;1.70;;
9256;SDS011;4665;51.368;6.782;2023-09-18T10:31:08;1.60;;;1.50;;
9256;SDS011;4665;51.368;6.782;2023-09-18T10:33:33;4.37;;;2.07;;
9256;SDS011;4665;51.368;6.782;2023-09-18T10:35:58;3.40;;;1.70;;
9256;SDS011;4665;51.368;6.782;2023-09-18T10:38:25;5.80;;;2.03;;
9256;SDS011;4665;51.368;6.782;2023-09-18T10:40:51;2.40;;;1.80;;
9256;SDS011;4665;51.368;6.782;2023-09-18T10:43:17;3.30;;;1.70;;
9256;SDS011;4665;51.368;6.782;2023-09-18T10:45:43;3.50;;;1.93;;
9256;SDS011;4665;51.368;6.782;2023-09-18T10:48:09;5.40;;;2.00;;
9256;SDS011;4665;51.368;6.782;2023-09-18T10:50:35;4.40;;;1.87;;
9256;SDS011;4665;51.368;6.782;2023-09-18T10:53:02;3.50;;;2.00;;
9256;SDS011;4665;51.368;6.782;2023-09-18T10:55:27;1.73;;;1.63;;
9256;SDS011;4665;51.368;6.782;2023-09-18T10:57:56;2.27;;;1.60;;
9256;SDS011;4665;51.368;6.782;2023-09-18T11:00:25;4.10;;;1.90;;
9256;SDS011;4665;51.368;6.782;2023-09-18T11:02:52;2.10;;;1.90;;
9256;SDS011;4665;51.368;6.782;2023-09-18T11:05:30;1.67;;;1.57;;
9256;SDS011;4665;51.368;6.782;2023-09-18T11:10:54;3.10;;;1.90;;
9256;SDS011;4665;51.368;6.782;2023-09-18T11:13:28;1.80;;;1.60;;
9256;SDS011;4665;51.368;6.782;2023-09-18T11:15:53;2.43;;;1.90;;
9256;SDS011;4665;51.368;6.782;2023-09-18T11:18:23;3.30;;;2.20;;
9256;SDS011;4665;51.368;6.782;2023-09-18T11:21:06;2.53;;;1.83;;
9256;SDS011;4665;51.368;6.782;2023-09-18T11:23:34;3.40;;;2.20;;
9256;SDS011;4665;51.368;6.782;2023-09-18T11:26:03;2.07;;;1.90;;
9256;SDS011;4665;51.368;6.782;2023-09-18T11:28:29;5.40;;;2.08;;
9256;SDS011;4665;51.368;6.782;2023-09-18T11:30:57;3.00;;;1.97;;
9256;SDS011;4665;51.368;6.782;2023-09-18T11:33:38;2.85;;;2.10;;
9256;SDS011;4665;51.368;6.782;2023-09-18T11:36:07;2.05;;;1.95;;
9256;SDS011;4665;51.368;6.782;2023-09-18T11:38:34;3.35;;;2.10;;
9256;SDS011;4665;51.368;6.782;2023-09-18T11:41:00;3.37;;;1.87;;
9256;SDS011;4665;51.368;6.782;2023-09-18T11:43:28;5.60;;;2.00;;
9256;SDS011;4665;51.368;6.782;2023-09-18T11:45:59;2.10;;;1.97;;
9256;SDS011;4665;51.368;6.782;2023-09-18T11:48:25;3.63;;;2.30;;
9256;SDS011;4665;51.368;6.782;2023-09-18T11:50:53;2.00;;;1.90;;
9256;SDS011;4665;51.368;6.782;2023-09-18T11:53:19;3.00;;;2.10;;
9256;SDS011;4665;51.368;6.782;2023-09-18T11:55:44;5.20;;;1.87;;
9256;SDS011;4665;51.368;6.782;2023-09-18T11:58:10;5.13;;;1.87;;
9256;SDS011;4665;51.368;6.782;2023-09-18T12:00:35;2.10;;;1.90;;
9256;SDS011;4665;51.368;6.782;2023-09-18T12:03:20;3.73;;;1.90;;
9256;SDS011;4665;51.368;6.782;2023-09-18T12:05:59;4.07;;;2.00;;
9256;SDS011;4665;51.368;6.782;2023-09-18T12:08:25;4.07;;;2.37;;
9256;SDS011;4665;51.368;6.782;2023-09-18T12:10:55;2.10;;;1.90;;
9256;SDS011;4665;51.368;6.782;2023-09-18T12:13:20;3.77;;;2.10;;
9256;SDS011;4665;51.368;6.782;2023-09-18T12:15:47;1.80;;;1.70;;
9256;SDS011;4665;51.368;6.782;2023-09-18T12:18:13;2.38;;;2.17;;
9256;SDS011;4665;51.368;6.782;2023-09-18T12:20:46;3.70;;;1.60;;
9256;SDS011;4665;51.368;6.782;2023-09-18T12:23:12;6.20;;;2.10;;
9256;SDS011;4665;51.368;6.782;2023-09-18T12:25:38;1.85;;;1.75;;
9256;SDS011;4665;51.368;6.782;2023-09-18T12:28:03;2.13;;;1.90;;
9256;SDS011;4665;51.368;6.782;2023-09-18T12:30:31;2.75;;;2.20;;
9256;SDS011;4665;51.368;6.782;2023-09-18T12:32:58;2.00;;;1.90;;
9256;SDS011;4665;51.368;6.782;2023-09-18T12:35:25;4.15;;;1.80;;
9256;SDS011;4665;51.368;6.782;2023-09-18T12:37:54;2.20;;;1.88;;
9256;SDS011;4665;51.368;6.782;2023-09-18T12:40:26;1.80;;;1.70;;
9256;SDS011;4665;51.368;6.782;2023-09-18T12:42:53;2.45;;;2.17;;
9256;SDS011;4665;51.368;6.782;2023-09-18T12:45:19;4.35;;;2.28;;
9256;SDS011;4665;51.368;6.782;2023-09-18T12:47:45;2.10;;;1.90;;
9256;SDS011;4665;51.368;6.782;2023-09-18T12:50:12;2.33;;;1.70;;
9256;SDS011;4665;51.368;6.782;2023-09-18T12:52:38;2.25;;;1.70;;
9256;SDS011;4665;51.368;6.782;2023-09-18T12:55:03;2.00;;;1.90;;
9256;SDS011;4665;51.368;6.782;2023-09-18T12:57:31;2.37;;;2.17;;
9256;SDS011;4665;51.368;6.782;2023-09-18T12:59:56;1.70;;;1.60;;
9256;SDS011;4665;51.368;6.782;2023-09-18T13:02:21;2.17;;;1.87;;
9256;SDS011;4665;51.368;6.782;2023-09-18T13:04:53;2.83;;;1.70;;
9256;SDS011;4665;51.368;6.782;2023-09-18T13:07:18;2.05;;;1.83;;
9256;SDS011;4665;51.368;6.782;2023-09-18T13:09:57;3.13;;;1.80;;
9256;SDS011;4665;51.368;6.782;2023-09-18T13:12:24;2.80;;;1.85;;
9256;SDS011;4665;51.368;6.782;2023-09-18T13:17:45;2.10;;;1.60;;
9256;SDS011;4665;51.368;6.782;2023-09-18T13:20:11;3.15;;;1.90;;
9256;SDS011;4665;51.368;6.782;2023-09-18T13:22:38;3.45;;;1.75;;
9256;SDS011;4665;51.368;6.782;2023-09-18T13:25:04;6.00;;;2.40;;
9256;SDS011;4665;51.368;6.782;2023-09-18T13:27:29;2.40;;;1.90;;
9256;SDS011;4665;51.368;6.782;2023-09-18T13:29:55;2.83;;;1.73;;
9256;SDS011;4665;51.368;6.782;2023-09-18T13:32:21;1.83;;;1.73;;
9256;SDS011;4665;51.368;6.782;2023-09-18T13:34:46;3.13;;;1.70;;
9256;SDS011;4665;51.368;6.782;2023-09-18T13:37:12;1.63;;;1.52;;
9256;SDS011;4665;51.368;6.782;2023-09-18T13:39:38;1.83;;;1.73;;
9256;SDS011;4665;51.368;6.782;2023-09-18T13:42:04;1.88;;;1.70;;
9256;SDS011;4665;51.368;6.782;2023-09-18T13:44:29;3.58;;;2.00;;
9256;SDS011;4665;51.368;6.782;2023-09-18T13:46:54;1.90;;;1.80;;
9256;SDS011;4665;51.368;6.782;2023-09-18T13:49:19;2.60;;;1.60;;
9256;SDS011;4665;51.368;6.782;2023-09-18T13:51:46;3.13;;;1.90;;
9256;SDS011;4665;51.368;6.782;2023-09-18T13:54:11;1.83;;;1.73;;
9256;SDS011;4665;51.368;6.782;2023-09-18T13:56:36;2.72;;;1.80;;
9256;SDS011;4665;51.368;6.782;2023-09-18T13:59:01;2.10;;;1.95;;
9256;SDS011;4665;51.368;6.782;2023-09-18T14:01:27;2.03;;;1.70;;
9256;SDS011;4665;51.368;6.782;2023-09-18T14:03:53;1.88;;;1.77;;
9256;SDS011;4665;51.368;6.782;2023-09-18T14:06:18;2.03;;;1.90;;
9256;SDS011;4665;51.368;6.782;2023-09-18T14:08:43;2.20;;;2.00;;
9256;SDS011;4665;51.368;6.782;2023-09-18T14:11:09;2.08;;;1.92;;
9256;SDS011;4665;51.368;6.782;2023-09-18T14:13:34;4.63;;;1.70;;
9256;SDS011;4665;51.368;6.782;2023-09-18T14:15:59;2.80;;;1.70;;
9256;SDS011;4665;51.368;6.782;2023-09-18T14:18:28;2.97;;;1.75;;
9256;SDS011;4665;51.368;6.782;2023-09-18T14:20:54;4.05;;;1.77;;
9256;SDS011;4665;51.368;6.782;2023-09-18T14:23:19;2.65;;;1.83;;
9256;SDS011;4665;51.368;6.782;2023-09-18T14:25:45;1.80;;;1.70;;
9256;SDS011;4665;51.368;6.782;2023-09-18T14:28:10;4.35;;;1.73;;
9256;SDS011;4665;51.368;6.782;2023-09-18T14:30:35;1.70;;;1.60;;
9256;SDS011;4665;51.368;6.782;2023-09-18T14:33:03;2.15;;;1.67;;
9256;SDS011;4665;51.368;6.782;2023-09-18T14:35:28;7.05;;;1.90;;
9256;SDS011;4665;51.368;6.782;2023-09-18T14:37:53;2.67;;;1.65;;
9256;SDS011;4665;51.368;6.782;2023-09-18T14:40:19;3.97;;;1.60;;
9256;SDS011;4665;51.368;6.782;2023-09-18T14:42:46;2.35;;;1.52;;
9256;SDS011;4665;51.368;6.782;2023-09-18T14:45:11;3.63;;;1.55;;
9256;SDS011;4665;51.368;6.782;2023-09-18T14:47:37;2.08;;;1.63;;
9256;SDS011;4665;51.368;6.782;2023-09-18T14:50:03;3.03;;;1.73;;
9256;SDS011;4665;51.368;6.782;2023-09-18T14:52:29;2.50;;;1.92;;
9256;SDS011;4665;51.368;6.782;2023-09-18T14:54:54;2.70;;;1.92;;
9256;SDS011;4665;51.368;6.782;2023-09-18T14:57:20;2.70;;;1.70;;
9256;SDS011;4665;51.368;6.782;2023-09-18T14:59:45;2.35;;;1.90;;
9256;SDS011;4665;51.368;6.782;2023-09-18T15:02:12;2.08;;;1.88;;
9256;SDS011;4665;51.368;6.782;2023-09-18T15:04:37;5.55;;;2.00;;
9256;SDS011;4665;51.368;6.782;2023-09-18T15:07:02;1.83;;;1.67;;
9256;SDS011;4665;51.368;6.782;2023-09-18T15:09:28;4.47;;;2.05;;
9256;SDS011;4665;51.368;6.782;2023-09-18T15:11:53;4.80;;;1.83;;
9256;SDS011;4665;51.368;6.782;2023-09-18T15:14:18;2.50;;;1.80;;
9256;SDS011;4665;51.368;6.782;2023-09-18T15:16:43;1.42;;;1.33;;
9256;SDS011;4665;51.368;6.782;2023-09-18T15:19:08;7.20;;;2.20;;